sensor_id;sensor_type;location;lat;lon;timestamp;pressure;altitude;pressure_sealevel;temperature;humidity
61682;BME280;47577;43.610;25.010;2022-08-25T00:01:55;100102.84;;;23.89;72.07
61682;BME280;47577;43.610;25.010;2022-08-25T00:04:23;100093.41;;;23.94;71.47
61682;BME280;47577;43.610;25.010;2022-08-25T00:06:50;100099.41;;;23.97;71.28
61682;BME280;47577;43.610;25.010;2022-08-25T00:09:22;100102.69;;;24.01;70.79
61682;BME280;47577;43.610;25.010;2022-08-25T00:11:50;100107.50;;;24.07;70.66
61682;BME280;47577;43.610;25.010;2022-08-25T00:14:29;100108.94;;;24.11;70.47
61682;BME280;47577;43.610;25.010;2022-08-25T00:16:58;100111.69;;;24.01;71.16
61682;BME280;47577;43.610;25.010;2022-08-25T00:19:28;100107.84;;;23.94;71.97
61682;BME280;47577;43.610;25.010;2022-08-25T00:21:57;100113.13;;;23.86;71.02
61682;BME280;47577;43.610;25.010;2022-08-25T00:24:24;100106.00;;;23.85;71.78
61682;BME280;47577;43.610;25.010;2022-08-25T00:26:53;100107.25;;;23.81;71.93
61682;BME280;47577;43.610;25.010;2022-08-25T00:29:20;100102.25;;;23.66;72.50
61682;BME280;47577;43.610;25.010;2022-08-25T00:31:47;100091.25;;;23.58;72.75
61682;BME280;47577;43.610;25.010;2022-08-25T00:34:18;100103.84;;;23.69;71.88
61682;BME280;47577;43.610;25.010;2022-08-25T00:36:45;100099.84;;;23.63;72.99
61682;BME280;47577;43.610;25.010;2022-08-25T00:39:12;100105.84;;;23.57;74.02
61682;BME280;47577;43.610;25.010;2022-08-25T00:41:40;100082.56;;;23.45;73.87
61682;BME280;47577;43.610;25.010;2022-08-25T00:44:09;100085.56;;;23.32;73.40
61682;BME280;47577;43.610;25.010;2022-08-25T00:46:43;100090.56;;;23.46;73.08
61682;BME280;47577;43.610;25.010;2022-08-25T00:49:38;100085.41;;;23.43;73.22
61682;BME280;47577;43.610;25.010;2022-08-25T00:52:19;100091.84;;;23.32;73.34
61682;BME280;47577;43.610;25.010;2022-08-25T00:57:29;100080.00;;;23.24;74.44
61682;BME280;47577;43.610;25.010;2022-08-25T00:59:58;100077.41;;;23.12;74.94
61682;BME280;47577;43.610;25.010;2022-08-25T01:02:25;100083.09;;;23.09;75.46
61682;BME280;47577;43.610;25.010;2022-08-25T01:04:52;100072.84;;;23.13;74.95
61682;BME280;47577;43.610;25.010;2022-08-25T01:07:19;100075.13;;;23.17;74.58
61682;BME280;47577;43.610;25.010;2022-08-25T01:09:49;100077.00;;;23.27;75.01
61682;BME280;47577;43.610;25.010;2022-08-25T01:12:17;100073.72;;;23.23;74.53
61682;BME280;47577;43.610;25.010;2022-08-25T01:14:45;100066.69;;;23.11;74.79
61682;BME280;47577;43.610;25.010;2022-08-25T01:17:11;100078.25;;;23.13;75.01
61682;BME280;47577;43.610;25.010;2022-08-25T01:19:38;100081.97;;;23.12;74.77
61682;BME280;47577;43.610;25.010;2022-08-25T01:22:05;100085.13;;;23.07;75.51
61682;BME280;47577;43.610;25.010;2022-08-25T01:27:09;100093.94;;;23.09;75.45
61682;BME280;47577;43.610;25.010;2022-08-25T01:29:36;100086.53;;;23.11;75.31
61682;BME280;47577;43.610;25.010;2022-08-25T01:32:06;100082.34;;;22.97;75.10
61682;BME280;47577;43.610;25.010;2022-08-25T01:34:35;100095.50;;;23.02;75.07
61682;BME280;47577;43.610;25.010;2022-08-25T01:37:03;100101.47;;;23.06;75.33
61682;BME280;47577;43.610;25.010;2022-08-25T01:39:31;100097.19;;;23.03;74.47
61682;BME280;47577;43.610;25.010;2022-08-25T01:44:47;100093.75;;;22.91;74.92
61682;BME280;47577;43.610;25.010;2022-08-25T01:47:14;100082.91;;;22.91;75.67
61682;BME280;47577;43.610;25.010;2022-08-25T01:49:41;100091.59;;;22.95;75.70
61682;BME280;47577;43.610;25.010;2022-08-25T01:52:22;100088.59;;;22.88;75.76
61682;BME280;47577;43.610;25.010;2022-08-25T01:54:51;100076.75;;;22.79;75.77
61682;BME280;47577;43.610;25.010;2022-08-25T01:57:17;100086.28;;;22.74;75.97
61682;BME280;47577;43.610;25.010;2022-08-25T01:59:44;100089.41;;;22.69;76.06
61682;BME280;47577;43.610;25.010;2022-08-25T02:02:11;100069.81;;;22.56;76.79
61682;BME280;47577;43.610;25.010;2022-08-25T02:04:37;100067.13;;;22.56;75.94
61682;BME280;47577;43.610;25.010;2022-08-25T02:07:06;100078.63;;;22.48;76.98
61682;BME280;47577;43.610;25.010;2022-08-25T02:09:35;100078.09;;;22.54;77.42
61682;BME280;47577;43.610;25.010;2022-08-25T02:12:03;100070.53;;;22.58;76.27
61682;BME280;47577;43.610;25.010;2022-08-25T02:14:29;100068.13;;;22.55;77.14
61682;BME280;47577;43.610;25.010;2022-08-25T02:16:56;100071.81;;;22.54;77.31
61682;BME280;47577;43.610;25.010;2022-08-25T02:19:24;100068.41;;;22.52;76.83
61682;BME280;47577;43.610;25.010;2022-08-25T02:21:51;100077.19;;;22.44;76.88
61682;BME280;47577;43.610;25.010;2022-08-25T02:24:18;100076.47;;;22.42;77.99
61682;BME280;47577;43.610;25.010;2022-08-25T02:26:44;100069.16;;;22.33;78.14
61682;BME280;47577;43.610;25.010;2022-08-25T02:29:11;100083.03;;;22.18;78.91
61682;BME280;47577;43.610;25.010;2022-08-25T02:31:38;100064.53;;;22.23;78.02
61682;BME280;47577;43.610;25.010;2022-08-25T02:34:05;100071.53;;;22.26;78.41
61682;BME280;47577;43.610;25.010;2022-08-25T02:36:33;100066.97;;;22.26;78.31
61682;BME280;47577;43.610;25.010;2022-08-25T02:39:00;100072.44;;;22.36;77.20
61682;BME280;47577;43.610;25.010;2022-08-25T02:41:27;100078.84;;;22.35;77.84
61682;BME280;47577;43.610;25.010;2022-08-25T02:43:55;100083.94;;;22.28;77.94
61682;BME280;47577;43.610;25.010;2022-08-25T02:46:22;100083.75;;;22.20;78.84
61682;BME280;47577;43.610;25.010;2022-08-25T02:48:50;100082.97;;;22.30;77.96
61682;BME280;47577;43.610;25.010;2022-08-25T02:51:20;100086.63;;;22.28;78.45
61682;BME280;47577;43.610;25.010;2022-08-25T02:53:47;100087.41;;;22.31;77.92
61682;BME280;47577;43.610;25.010;2022-08-25T02:56:15;100085.16;;;22.15;78.57
61682;BME280;47577;43.610;25.010;2022-08-25T02:58:43;100085.69;;;22.08;78.46
61682;BME280;47577;43.610;25.010;2022-08-25T03:01:11;100084.56;;;22.11;78.26
61682;BME280;47577;43.610;25.010;2022-08-25T03:03:38;100082.75;;;22.21;78.24
61682;BME280;47577;43.610;25.010;2022-08-25T03:06:07;100097.88;;;22.24;77.89
61682;BME280;47577;43.610;25.010;2022-08-25T03:08:35;100098.47;;;22.27;78.31
61682;BME280;47577;43.610;25.010;2022-08-25T03:11:03;100096.75;;;22.26;77.70
61682;BME280;47577;43.610;25.010;2022-08-25T03:13:31;100088.50;;;22.28;77.68
61682;BME280;47577;43.610;25.010;2022-08-25T03:16:02;100097.38;;;22.30;77.39
61682;BME280;47577;43.610;25.010;2022-08-25T03:18:29;100095.97;;;22.36;76.29
61682;BME280;47577;43.610;25.010;2022-08-25T03:20:55;100090.69;;;22.34;77.80
61682;BME280;47577;43.610;25.010;2022-08-25T03:23:22;100095.66;;;22.29;77.51
61682;BME280;47577;43.610;25.010;2022-08-25T03:25:48;100091.34;;;22.26;77.47
61682;BME280;47577;43.610;25.010;2022-08-25T03:28:33;100094.75;;;22.28;78.08
61682;BME280;47577;43.610;25.010;2022-08-25T03:31:00;100098.47;;;22.27;78.05
61682;BME280;47577;43.610;25.010;2022-08-25T03:33:28;100098.16;;;22.21;77.76
61682;BME280;47577;43.610;25.010;2022-08-25T03:35:56;100102.16;;;22.26;78.45
61682;BME280;47577;43.610;25.010;2022-08-25T03:38:24;100096.03;;;22.24;78.34
61682;BME280;47577;43.610;25.010;2022-08-25T03:40:51;100104.56;;;22.20;78.97
61682;BME280;47577;43.610;25.010;2022-08-25T03:43:18;100101.53;;;22.13;78.47
61682;BME280;47577;43.610;25.010;2022-08-25T03:45:46;100105.53;;;22.19;78.78
61682;BME280;47577;43.610;25.010;2022-08-25T03:48:13;100103.56;;;22.21;78.42
61682;BME280;47577;43.610;25.010;2022-08-25T03:50:48;100104.16;;;22.24;78.59
61682;BME280;47577;43.610;25.010;2022-08-25T03:53:15;100108.25;;;22.19;78.60
61682;BME280;47577;43.610;25.010;2022-08-25T03:55:42;100097.16;;;22.22;78.88
61682;BME280;47577;43.610;25.010;2022-08-25T03:58:09;100100.88;;;22.21;78.64
61682;BME280;47577;43.610;25.010;2022-08-25T04:00:36;100104.03;;;22.26;78.99
61682;BME280;47577;43.610;25.010;2022-08-25T04:03:03;100099.09;;;22.31;78.14
61682;BME280;47577;43.610;25.010;2022-08-25T04:05:29;100091.16;;;22.39;77.28
61682;BME280;47577;43.610;25.010;2022-08-25T04:07:56;100104.59;;;22.51;77.29
61682;BME280;47577;43.610;25.010;2022-08-25T04:10:23;100101.47;;;22.55;76.39
61682;BME280;47577;43.610;25.010;2022-08-25T04:12:49;100108.34;;;22.69;75.24
61682;BME280;47577;43.610;25.010;2022-08-25T04:15:16;100103.25;;;22.66;75.75
61682;BME280;47577;43.610;25.010;2022-08-25T04:17:43;100102.88;;;22.50;75.99
61682;BME280;47577;43.610;25.010;2022-08-25T04:20:10;100109.03;;;22.52;76.42
61682;BME280;47577;43.610;25.010;2022-08-25T04:22:37;100111.00;;;22.50;76.90
61682;BME280;47577;43.610;25.010;2022-08-25T04:25:05;100116.34;;;22.71;76.31
61682;BME280;47577;43.610;25.010;2022-08-25T04:27:32;100102.66;;;22.72;75.83
61682;BME280;47577;43.610;25.010;2022-08-25T04:29:59;100101.78;;;22.62;76.97
61682;BME280;47577;43.610;25.010;2022-08-25T04:32:25;100104.50;;;22.62;76.91
61682;BME280;47577;43.610;25.010;2022-08-25T04:34:52;100102.13;;;22.78;75.77
61682;BME280;47577;43.610;25.010;2022-08-25T04:37:18;100092.31;;;22.77;75.62
61682;BME280;47577;43.610;25.010;2022-08-25T04:39:45;100098.63;;;22.97;74.86
61682;BME280;47577;43.610;25.010;2022-08-25T04:42:12;100108.81;;;23.15;74.38
61682;BME280;47577;43.610;25.010;2022-08-25T04:44:38;100107.66;;;23.17;74.80
61682;BME280;47577;43.610;25.010;2022-08-25T04:47:05;100110.81;;;23.23;73.73
61682;BME280;47577;43.610;25.010;2022-08-25T04:49:31;100103.97;;;23.28;73.55
61682;BME280;47577;43.610;25.010;2022-08-25T04:51:58;100116.09;;;23.44;72.03
61682;BME280;47577;43.610;25.010;2022-08-25T04:54:25;100108.44;;;23.39;73.04
61682;BME280;47577;43.610;25.010;2022-08-25T04:56:53;100109.69;;;23.45;73.47
61682;BME280;47577;43.610;25.010;2022-08-25T04:59:19;100116.09;;;23.53;72.24
61682;BME280;47577;43.610;25.010;2022-08-25T05:01:46;100111.69;;;23.62;73.02
61682;BME280;47577;43.610;25.010;2022-08-25T05:04:15;100096.69;;;23.58;72.59
61682;BME280;47577;43.610;25.010;2022-08-25T05:06:42;100117.00;;;23.64;73.03
61682;BME280;47577;43.610;25.010;2022-08-25T05:09:08;100112.97;;;23.68;73.89
61682;BME280;47577;43.610;25.010;2022-08-25T05:11:35;100113.56;;;23.71;71.53
61682;BME280;47577;43.610;25.010;2022-08-25T05:14:02;100097.97;;;23.73;72.31
61682;BME280;47577;43.610;25.010;2022-08-25T05:16:30;100110.97;;;23.80;73.06
61682;BME280;47577;43.610;25.010;2022-08-25T05:18:57;100114.16;;;23.85;72.85
61682;BME280;47577;43.610;25.010;2022-08-25T05:21:26;100107.13;;;23.92;72.59
61682;BME280;47577;43.610;25.010;2022-08-25T05:23:57;100116.84;;;23.95;72.34
61682;BME280;47577;43.610;25.010;2022-08-25T05:26:25;100112.41;;;23.94;71.95
61682;BME280;47577;43.610;25.010;2022-08-25T05:28:54;100124.84;;;24.06;71.70
61682;BME280;47577;43.610;25.010;2022-08-25T05:31:22;100117.25;;;24.09;68.52
61682;BME280;47577;43.610;25.010;2022-08-25T05:33:49;100119.94;;;24.19;67.81
61682;BME280;47577;43.610;25.010;2022-08-25T05:36:17;100124.59;;;24.37;67.51
61682;BME280;47577;43.610;25.010;2022-08-25T05:38:45;100131.72;;;24.48;62.79
61682;BME280;47577;43.610;25.010;2022-08-25T05:41:15;100117.38;;;24.55;61.31
61682;BME280;47577;43.610;25.010;2022-08-25T05:43:43;100126.81;;;24.71;60.66
61682;BME280;47577;43.610;25.010;2022-08-25T05:46:10;100121.22;;;24.72;58.74
61682;BME280;47577;43.610;25.010;2022-08-25T05:48:37;100120.47;;;24.80;57.56
61682;BME280;47577;43.610;25.010;2022-08-25T05:51:05;100133.78;;;24.73;57.86
61682;BME280;47577;43.610;25.010;2022-08-25T05:53:33;100122.06;;;24.73;57.18
61682;BME280;47577;43.610;25.010;2022-08-25T05:56:01;100131.44;;;24.88;58.09
61682;BME280;47577;43.610;25.010;2022-08-25T05:58:28;100128.72;;;24.88;56.81
61682;BME280;47577;43.610;25.010;2022-08-25T06:00:56;100130.81;;;24.94;57.11
61682;BME280;47577;43.610;25.010;2022-08-25T06:03:23;100131.38;;;24.98;53.84
61682;BME280;47577;43.610;25.010;2022-08-25T06:05:50;100136.03;;;25.06;55.25
61682;BME280;47577;43.610;25.010;2022-08-25T06:08:16;100129.00;;;25.13;55.03
61682;BME280;47577;43.610;25.010;2022-08-25T06:10:43;100118.97;;;25.13;53.72
61682;BME280;47577;43.610;25.010;2022-08-25T06:13:09;100120.22;;;25.29;52.77
61682;BME280;47577;43.610;25.010;2022-08-25T06:15:36;100119.69;;;25.43;53.55
61682;BME280;47577;43.610;25.010;2022-08-25T06:18:03;100132.72;;;25.58;51.09
61682;BME280;47577;43.610;25.010;2022-08-25T06:20:30;100121.28;;;25.54;50.66
61682;BME280;47577;43.610;25.010;2022-08-25T06:22:57;100128.69;;;25.62;51.67
61682;BME280;47577;43.610;25.010;2022-08-25T06:25:25;100125.34;;;25.68;51.04
61682;BME280;47577;43.610;25.010;2022-08-25T06:27:53;100121.69;;;25.77;51.96
61682;BME280;47577;43.610;25.010;2022-08-25T06:30:22;100127.19;;;25.85;50.37
61682;BME280;47577;43.610;25.010;2022-08-25T06:32:49;100120.72;;;25.86;51.46
61682;BME280;47577;43.610;25.010;2022-08-25T06:35:17;100132.88;;;25.92;51.97
61682;BME280;47577;43.610;25.010;2022-08-25T06:37:44;100133.97;;;25.99;51.63
61682;BME280;47577;43.610;25.010;2022-08-25T06:40:10;100137.72;;;25.98;52.02
61682;BME280;47577;43.610;25.010;2022-08-25T06:42:37;100132.44;;;25.97;50.66
61682;BME280;47577;43.610;25.010;2022-08-25T06:45:04;100129.19;;;26.01;51.58
61682;BME280;47577;43.610;25.010;2022-08-25T06:47:31;100130.50;;;26.15;53.34
61682;BME280;47577;43.610;25.010;2022-08-25T06:49:58;100131.25;;;26.25;49.68
61682;BME280;47577;43.610;25.010;2022-08-25T06:52:24;100134.13;;;26.24;50.46
61682;BME280;47577;43.610;25.010;2022-08-25T06:54:51;100129.56;;;26.24;51.28
61682;BME280;47577;43.610;25.010;2022-08-25T06:57:18;100130.28;;;26.08;51.88
61682;BME280;47577;43.610;25.010;2022-08-25T06:59:44;100139.69;;;26.14;50.69
61682;BME280;47577;43.610;25.010;2022-08-25T07:02:11;100133.22;;;26.15;49.28
61682;BME280;47577;43.610;25.010;2022-08-25T07:04:38;100129.72;;;26.23;49.07
61682;BME280;47577;43.610;25.010;2022-08-25T07:07:04;100125.25;;;26.48;51.00
61682;BME280;47577;43.610;25.010;2022-08-25T07:09:30;100126.00;;;26.58;48.35
61682;BME280;47577;43.610;25.010;2022-08-25T07:11:57;100128.09;;;26.64;49.11
61682;BME280;47577;43.610;25.010;2022-08-25T07:14:24;100129.06;;;26.90;48.72
61682;BME280;47577;43.610;25.010;2022-08-25T07:16:50;100126.19;;;26.99;47.11
61682;BME280;47577;43.610;25.010;2022-08-25T07:19:17;100130.84;;;27.07;46.87
61682;BME280;47577;43.610;25.010;2022-08-25T07:21:50;100129.47;;;27.11;44.58
61682;BME280;47577;43.610;25.010;2022-08-25T07:24:17;100121.28;;;27.11;44.98
61682;BME280;47577;43.610;25.010;2022-08-25T07:26:44;100115.03;;;27.27;44.64
61682;BME280;47577;43.610;25.010;2022-08-25T07:29:20;100111.34;;;27.45;45.35
61682;BME280;47577;43.610;25.010;2022-08-25T07:31:48;100123.97;;;27.62;43.46
61682;BME280;47577;43.610;25.010;2022-08-25T07:34:15;100121.44;;;27.77;43.02
61682;BME280;47577;43.610;25.010;2022-08-25T07:37:01;100109.81;;;27.83;42.43
61682;BME280;47577;43.610;25.010;2022-08-25T07:39:30;100114.81;;;27.96;41.48
61682;BME280;47577;43.610;25.010;2022-08-25T07:41:57;100114.28;;;27.93;41.76
61682;BME280;47577;43.610;25.010;2022-08-25T07:44:25;100115.47;;;27.98;41.31
61682;BME280;47577;43.610;25.010;2022-08-25T07:46:51;100111.88;;;28.06;41.29
61682;BME280;47577;43.610;25.010;2022-08-25T07:49:18;100118.53;;;28.12;40.38
61682;BME280;47577;43.610;25.010;2022-08-25T07:51:46;100115.09;;;28.18;40.95
61682;BME280;47577;43.610;25.010;2022-08-25T07:54:13;100112.69;;;28.23;41.39
61682;BME280;47577;43.610;25.010;2022-08-25T07:56:40;100108.59;;;28.27;40.11
61682;BME280;47577;43.610;25.010;2022-08-25T07:59:08;100116.25;;;28.40;40.21
61682;BME280;47577;43.610;25.010;2022-08-25T08:01:35;100114.41;;;28.32;42.18
61682;BME280;47577;43.610;25.010;2022-08-25T08:04:02;100116.13;;;28.33;41.35
61682;BME280;47577;43.610;25.010;2022-08-25T08:06:29;100107.19;;;28.39;41.20
61682;BME280;47577;43.610;25.010;2022-08-25T08:08:56;100112.38;;;28.09;40.32
61682;BME280;47577;43.610;25.010;2022-08-25T08:11:25;100111.88;;;28.14;38.74
61682;BME280;47577;43.610;25.010;2022-08-25T08:13:54;100108.97;;;28.16;38.76
61682;BME280;47577;43.610;25.010;2022-08-25T08:16:23;100106.59;;;28.04;40.63
61682;BME280;47577;43.610;25.010;2022-08-25T08:18:50;100105.03;;;27.85;39.76
61682;BME280;47577;43.610;25.010;2022-08-25T08:21:21;100102.00;;;27.97;39.89
61682;BME280;47577;43.610;25.010;2022-08-25T08:23:49;100113.06;;;28.12;38.79
61682;BME280;47577;43.610;25.010;2022-08-25T08:26:16;100108.47;;;28.12;39.89
61682;BME280;47577;43.610;25.010;2022-08-25T08:28:43;100108.94;;;28.32;38.81
61682;BME280;47577;43.610;25.010;2022-08-25T08:31:10;100102.44;;;28.33;39.27
61682;BME280;47577;43.610;25.010;2022-08-25T08:33:37;100108.72;;;28.42;38.78
61682;BME280;47577;43.610;25.010;2022-08-25T08:36:08;100096.78;;;28.43;38.68
61682;BME280;47577;43.610;25.010;2022-08-25T08:38:35;100090.63;;;28.41;38.51
61682;BME280;47577;43.610;25.010;2022-08-25T08:41:11;100083.41;;;28.56;37.32
61682;BME280;47577;43.610;25.010;2022-08-25T08:44:48;100092.28;;;28.67;38.24
61682;BME280;47577;43.610;25.010;2022-08-25T08:50:04;100092.00;;;29.24;38.08
61682;BME280;47577;43.610;25.010;2022-08-25T08:52:45;100088.78;;;29.44;36.50
61682;BME280;47577;43.610;25.010;2022-08-25T08:55:33;100086.34;;;29.49;36.15
61682;BME280;47577;43.610;25.010;2022-08-25T08:58:10;100087.13;;;29.58;36.21
61682;BME280;47577;43.610;25.010;2022-08-25T09:00:45;100086.03;;;29.67;36.14
61682;BME280;47577;43.610;25.010;2022-08-25T09:03:28;100066.94;;;29.59;36.51
61682;BME280;47577;43.610;25.010;2022-08-25T09:06:01;100084.75;;;29.78;37.50
61682;BME280;47577;43.610;25.010;2022-08-25T09:08:29;100081.53;;;29.97;36.73
61682;BME280;47577;43.610;25.010;2022-08-25T09:11:04;100084.28;;;30.12;35.84
61682;BME280;47577;43.610;25.010;2022-08-25T09:16:37;100084.38;;;30.19;35.52
61682;BME280;47577;43.610;25.010;2022-08-25T09:25:02;100076.81;;;30.06;35.16
61682;BME280;47577;43.610;25.010;2022-08-25T09:30:33;100063.84;;;30.00;37.47
61682;BME280;47577;43.610;25.010;2022-08-25T09:33:05;100072.06;;;30.00;35.47
61682;BME280;47577;43.610;25.010;2022-08-25T09:35:35;100066.16;;;30.26;36.94
61682;BME280;47577;43.610;25.010;2022-08-25T09:38:08;100073.78;;;30.16;37.02
61682;BME280;47577;43.610;25.010;2022-08-25T09:40:41;100064.47;;;29.87;37.61
61682;BME280;47577;43.610;25.010;2022-08-25T09:46:00;100059.16;;;30.08;37.17
61682;BME280;47577;43.610;25.010;2022-08-25T09:48:31;100062.16;;;30.29;36.25
61682;BME280;47577;43.610;25.010;2022-08-25T09:56:57;100042.31;;;30.26;35.71
61682;BME280;47577;43.610;25.010;2022-08-25T09:59:31;100038.84;;;30.48;35.12
61682;BME280;47577;43.610;25.010;2022-08-25T10:02:25;100030.22;;;30.36;36.01
61682;BME280;47577;43.610;25.010;2022-08-25T10:04:51;100033.38;;;30.48;34.20
61682;BME280;47577;43.610;25.010;2022-08-25T10:07:24;100036.53;;;30.66;34.09
61682;BME280;47577;43.610;25.010;2022-08-25T10:09:58;100033.00;;;30.87;35.32
61682;BME280;47577;43.610;25.010;2022-08-25T10:12:44;100015.28;;;31.05;35.26
61682;BME280;47577;43.610;25.010;2022-08-25T10:15:25;100025.34;;;31.41;34.40
61682;BME280;47577;43.610;25.010;2022-08-25T10:17:52;100028.56;;;31.44;32.22
61682;BME280;47577;43.610;25.010;2022-08-25T10:20:23;100016.25;;;31.40;31.90
61682;BME280;47577;43.610;25.010;2022-08-25T10:22:50;100015.59;;;31.60;34.39
61682;BME280;47577;43.610;25.010;2022-08-25T10:25:25;100013.16;;;31.71;32.74
61682;BME280;47577;43.610;25.010;2022-08-25T10:31:01;100015.66;;;31.95;31.96
61682;BME280;47577;43.610;25.010;2022-08-25T10:36:36;100013.03;;;32.43;31.60
61682;BME280;47577;43.610;25.010;2022-08-25T10:39:25;100003.94;;;32.49;32.06
61682;BME280;47577;43.610;25.010;2022-08-25T10:42:24;100011.91;;;32.37;31.39
61682;BME280;47577;43.610;25.010;2022-08-25T10:50:40;100001.72;;;32.66;31.41
61682;BME280;47577;43.610;25.010;2022-08-25T10:53:26;100004.47;;;32.73;30.89
61682;BME280;47577;43.610;25.010;2022-08-25T11:04:06;99973.34;;;32.66;32.24
61682;BME280;47577;43.610;25.010;2022-08-25T11:06:41;99968.53;;;32.94;31.05
61682;BME280;47577;43.610;25.010;2022-08-25T11:09:14;99979.34;;;33.03;30.37
61682;BME280;47577;43.610;25.010;2022-08-25T11:11:53;99964.53;;;33.10;28.24
61682;BME280;47577;43.610;25.010;2022-08-25T11:15:03;99969.63;;;33.00;30.17
61682;BME280;47577;43.610;25.010;2022-08-25T11:18:03;99953.09;;;32.87;29.92
61682;BME280;47577;43.610;25.010;2022-08-25T11:20:36;99968.31;;;32.96;29.43
61682;BME280;47577;43.610;25.010;2022-08-25T11:23:20;99971.38;;;33.21;30.52
61682;BME280;47577;43.610;25.010;2022-08-25T11:25:52;99959.94;;;33.24;29.81
61682;BME280;47577;43.610;25.010;2022-08-25T11:31:03;99957.38;;;33.36;29.45
61682;BME280;47577;43.610;25.010;2022-08-25T11:33:30;99954.00;;;33.47;29.47
61682;BME280;47577;43.610;25.010;2022-08-25T11:38:47;99953.16;;;33.47;27.36
61682;BME280;47577;43.610;25.010;2022-08-25T11:44:29;99948.66;;;33.66;27.31
61682;BME280;47577;43.610;25.010;2022-08-25T11:55:16;99934.25;;;33.91;27.41
61682;BME280;47577;43.610;25.010;2022-08-25T11:57:45;99930.59;;;34.03;28.01
61682;BME280;47577;43.610;25.010;2022-08-25T12:00:34;99928.06;;;34.02;26.45
61682;BME280;47577;43.610;25.010;2022-08-25T12:11:49;99928.84;;;34.16;27.46
61682;BME280;47577;43.610;25.010;2022-08-25T12:14:33;99914.81;;;34.31;27.54
61682;BME280;47577;43.610;25.010;2022-08-25T12:17:36;99916.31;;;34.20;26.83
61682;BME280;47577;43.610;25.010;2022-08-25T12:20:03;99907.28;;;33.93;26.67
61682;BME280;47577;43.610;25.010;2022-08-25T12:25:18;99907.22;;;34.13;29.44
61682;BME280;47577;43.610;25.010;2022-08-25T12:27:54;99909.72;;;34.34;27.26
61682;BME280;47577;43.610;25.010;2022-08-25T12:30:28;99894.31;;;34.52;27.21
61682;BME280;47577;43.610;25.010;2022-08-25T12:35:59;99914.72;;;34.89;26.06
61682;BME280;47577;43.610;25.010;2022-08-25T12:38:45;99908.78;;;34.86;25.64
61682;BME280;47577;43.610;25.010;2022-08-25T12:43:48;99906.06;;;34.79;25.72
61682;BME280;47577;43.610;25.010;2022-08-25T12:49:02;99897.16;;;35.09;26.50
61682;BME280;47577;43.610;25.010;2022-08-25T12:54:24;99901.53;;;35.16;26.81
61682;BME280;47577;43.610;25.010;2022-08-25T12:57:01;99900.13;;;35.32;24.93
61682;BME280;47577;43.610;25.010;2022-08-25T12:59:41;99902.63;;;35.41;24.42
61682;BME280;47577;43.610;25.010;2022-08-25T13:11:01;99874.66;;;35.30;24.76
61682;BME280;47577;43.610;25.010;2022-08-25T13:16:28;99865.81;;;35.65;24.12
61682;BME280;47577;43.610;25.010;2022-08-25T13:18:56;99865.97;;;35.70;24.46
61682;BME280;47577;43.610;25.010;2022-08-25T13:21:40;99854.44;;;35.55;24.02
61682;BME280;47577;43.610;25.010;2022-08-25T13:24:39;99865.50;;;35.74;23.43
61682;BME280;47577;43.610;25.010;2022-08-25T13:27:09;99853.75;;;35.60;23.62
61682;BME280;47577;43.610;25.010;2022-08-25T13:29:54;99856.84;;;35.88;23.06
61682;BME280;47577;43.610;25.010;2022-08-25T13:32:28;99850.16;;;35.78;22.77
61682;BME280;47577;43.610;25.010;2022-08-25T13:35:26;99850.81;;;35.73;23.58
61682;BME280;47577;43.610;25.010;2022-08-25T13:37:53;99844.25;;;35.74;22.52
61682;BME280;47577;43.610;25.010;2022-08-25T13:40:27;99836.09;;;35.79;23.55
61682;BME280;47577;43.610;25.010;2022-08-25T13:43:05;99853.00;;;35.90;24.18
61682;BME280;47577;43.610;25.010;2022-08-25T13:45:37;99856.00;;;35.88;23.59
61682;BME280;47577;43.610;25.010;2022-08-25T13:48:04;99849.63;;;36.06;23.99
61682;BME280;47577;43.610;25.010;2022-08-25T13:50:33;99841.81;;;36.15;24.11
61682;BME280;47577;43.610;25.010;2022-08-25T13:53:23;99832.81;;;36.19;22.44
61682;BME280;47577;43.610;25.010;2022-08-25T13:55:54;99837.22;;;36.27;22.33
61682;BME280;47577;43.610;25.010;2022-08-25T13:58:29;99828.13;;;36.20;22.32
61682;BME280;47577;43.610;25.010;2022-08-25T14:01:12;99835.06;;;36.11;22.30
61682;BME280;47577;43.610;25.010;2022-08-25T14:03:43;99828.94;;;36.09;22.88
61682;BME280;47577;43.610;25.010;2022-08-25T14:06:22;99827.63;;;36.11;22.77
61682;BME280;47577;43.610;25.010;2022-08-25T14:11:33;99811.06;;;36.23;23.32
61682;BME280;47577;43.610;25.010;2022-08-25T14:14:30;99815.81;;;36.34;22.38
61682;BME280;47577;43.610;25.010;2022-08-25T14:17:06;99806.22;;;36.37;21.75
61682;BME280;47577;43.610;25.010;2022-08-25T14:19:41;99800.09;;;36.16;21.71
61682;BME280;47577;43.610;25.010;2022-08-25T14:22:11;99803.09;;;36.15;23.50
61682;BME280;47577;43.610;25.010;2022-08-25T14:24:38;99794.44;;;36.11;21.85
61682;BME280;47577;43.610;25.010;2022-08-25T14:27:05;99794.84;;;35.96;22.17
61682;BME280;47577;43.610;25.010;2022-08-25T14:29:31;99796.38;;;35.92;21.68
61682;BME280;47577;43.610;25.010;2022-08-25T14:31:57;99795.25;;;36.12;22.09
61682;BME280;47577;43.610;25.010;2022-08-25T14:34:28;99786.25;;;36.16;22.70
61682;BME280;47577;43.610;25.010;2022-08-25T14:36:56;99795.75;;;36.39;23.01
61682;BME280;47577;43.610;25.010;2022-08-25T14:39:25;99791.75;;;36.35;23.54
61682;BME280;47577;43.610;25.010;2022-08-25T14:41:53;99781.97;;;36.20;21.46
61682;BME280;47577;43.610;25.010;2022-08-25T14:44:20;99798.03;;;36.30;22.02
61682;BME280;47577;43.610;25.010;2022-08-25T14:46:52;99791.63;;;36.30;22.78